sensor_id;sensor_type;location;lat;lon;timestamp;P1;durP1;ratioP1;P2;durP2;ratioP2
66966;SDS011;53900;51.468;-2.586;2023-11-21T00:00:20;4.15;;;0.98;;
66966;SDS011;53900;51.468;-2.586;2023-11-21T00:02:45;1.52;;;0.88;;
66966;SDS011;53900;51.468;-2.586;2023-11-21T00:05:11;2.22;;;0.68;;
66966;SDS011;53900;51.468;-2.586;2023-11-21T00:07:37;7.07;;;1.00;;
66966;SDS011;53900;51.468;-2.586;2023-11-21T00:10:03;4.47;;;0.82;;
66966;SDS011;53900;51.468;-2.586;2023-11-21T00:12:30;5.15;;;0.93;;
66966;SDS011;53900;51.468;-2.586;2023-11-21T00:14:56;5.68;;;0.98;;
66966;SDS011;53900;51.468;-2.586;2023-11-21T00:17:21;1.92;;;0.90;;
66966;SDS011;53900;51.468;-2.586;2023-11-21T00:19:46;1.60;;;0.90;;
66966;SDS011;53900;51.468;-2.586;2023-11-21T00:22:12;7.93;;;0.73;;
66966;SDS011;53900;51.468;-2.586;2023-11-21T00:24:37;1.63;;;0.80;;
66966;SDS011;53900;51.468;-2.586;2023-11-21T00:27:02;2.15;;;0.75;;
66966;SDS011;53900;51.468;-2.586;2023-11-21T00:29:28;2.75;;;0.70;;
66966;SDS011;53900;51.468;-2.586;2023-11-21T00:31:53;2.70;;;0.63;;
66966;SDS011;53900;51.468;-2.586;2023-11-21T00:34:18;1.52;;;0.55;;
66966;SDS011;53900;51.468;-2.586;2023-11-21T00:36:44;3.10;;;0.63;;
66966;SDS011;53900;51.468;-2.586;2023-11-21T00:39:09;7.85;;;1.08;;
66966;SDS011;53900;51.468;-2.586;2023-11-21T00:41:36;5.30;;;0.65;;
66966;SDS011;53900;51.468;-2.586;2023-11-21T00:44:02;4.18;;;0.60;;
66966;SDS011;53900;51.468;-2.586;2023-11-21T00:46:27;2.85;;;1.58;;
66966;SDS011;53900;51.468;-2.586;2023-11-21T00:48:54;2.25;;;0.57;;
66966;SDS011;53900;51.468;-2.586;2023-11-21T00:51:19;3.00;;;0.70;;
66966;SDS011;53900;51.468;-2.586;2023-11-21T00:53:44;4.65;;;0.70;;
66966;SDS011;53900;51.468;-2.586;2023-11-21T00:56:09;2.28;;;0.50;;
66966;SDS011;53900;51.468;-2.586;2023-11-21T00:58:35;2.80;;;0.82;;
66966;SDS011;53900;51.468;-2.586;2023-11-21T01:01:00;3.33;;;0.85;;
66966;SDS011;53900;51.468;-2.586;2023-11-21T01:03:25;5.25;;;0.70;;
66966;SDS011;53900;51.468;-2.586;2023-11-21T01:05:51;2.00;;;0.68;;
66966;SDS011;53900;51.468;-2.586;2023-11-21T01:08:16;2.80;;;0.60;;
66966;SDS011;53900;51.468;-2.586;2023-11-21T01:10:41;1.95;;;0.60;;
66966;SDS011;53900;51.468;-2.586;2023-11-21T01:13:06;3.03;;;0.60;;
66966;SDS011;53900;51.468;-2.586;2023-11-21T01:15:32;3.00;;;0.77;;
66966;SDS011;53900;51.468;-2.586;2023-11-21T01:17:58;4.07;;;0.80;;
66966;SDS011;53900;51.468;-2.586;2023-11-21T01:20:23;1.92;;;0.73;;
66966;SDS011;53900;51.468;-2.586;2023-11-21T01:22:48;2.47;;;0.50;;
66966;SDS011;53900;51.468;-2.586;2023-11-21T01:25:14;3.50;;;0.70;;
66966;SDS011;53900;51.468;-2.586;2023-11-21T01:27:41;3.65;;;0.95;;
66966;SDS011;53900;51.468;-2.586;2023-11-21T01:30:06;3.17;;;0.90;;
66966;SDS011;53900;51.468;-2.586;2023-11-21T01:32:33;2.63;;;0.68;;
66966;SDS011;53900;51.468;-2.586;2023-11-21T01:34:59;2.88;;;1.02;;
66966;SDS011;53900;51.468;-2.586;2023-11-21T01:37:24;2.80;;;0.70;;
66966;SDS011;53900;51.468;-2.586;2023-11-21T01:39:52;3.28;;;0.63;;
66966;SDS011;53900;51.468;-2.586;2023-11-21T01:42:17;2.47;;;0.60;;
66966;SDS011;53900;51.468;-2.586;2023-11-21T01:44:43;1.33;;;0.47;;
66966;SDS011;53900;51.468;-2.586;2023-11-21T01:47:08;3.17;;;0.85;;
66966;SDS011;53900;51.468;-2.586;2023-11-21T01:49:34;2.40;;;0.63;;
66966;SDS011;53900;51.468;-2.586;2023-11-21T01:51:59;4.10;;;0.80;;
66966;SDS011;53900;51.468;-2.586;2023-11-21T01:54:25;3.40;;;0.43;;
66966;SDS011;53900;51.468;-2.586;2023-11-21T01:56:50;3.97;;;0.75;;
66966;SDS011;53900;51.468;-2.586;2023-11-21T01:59:17;2.80;;;1.00;;
66966;SDS011;53900;51.468;-2.586;2023-11-21T02:01:43;1.55;;;0.68;;
66966;SDS011;53900;51.468;-2.586;2023-11-21T02:04:08;1.08;;;0.50;;
66966;SDS011;53900;51.468;-2.586;2023-11-21T02:06:34;1.00;;;0.88;;
66966;SDS011;53900;51.468;-2.586;2023-11-21T02:09:00;1.27;;;0.50;;
66966;SDS011;53900;51.468;-2.586;2023-11-21T02:11:25;1.98;;;0.50;;
66966;SDS011;53900;51.468;-2.586;2023-11-21T02:13:51;6.95;;;0.70;;
66966;SDS011;53900;51.468;-2.586;2023-11-21T02:16:18;2.17;;;0.40;;
66966;SDS011;53900;51.468;-2.586;2023-11-21T02:18:45;1.10;;;0.68;;
66966;SDS011;53900;51.468;-2.586;2023-11-21T02:21:12;1.42;;;0.60;;
66966;SDS011;53900;51.468;-2.586;2023-11-21T02:23:37;1.73;;;0.63;;
66966;SDS011;53900;51.468;-2.586;2023-11-21T02:26:07;4.07;;;0.68;;
66966;SDS011;53900;51.468;-2.586;2023-11-21T02:28:32;2.90;;;0.60;;
66966;SDS011;53900;51.468;-2.586;2023-11-21T02:30:58;3.42;;;0.68;;
66966;SDS011;53900;51.468;-2.586;2023-11-21T02:33:24;0.80;;;0.52;;
66966;SDS011;53900;51.468;-2.586;2023-11-21T02:35:49;1.60;;;0.70;;
66966;SDS011;53900;51.468;-2.586;2023-11-21T02:38:14;1.00;;;0.60;;
66966;SDS011;53900;51.468;-2.586;2023-11-21T02:40:41;1.42;;;0.45;;
66966;SDS011;53900;51.468;-2.586;2023-11-21T02:43:06;2.38;;;0.80;;
66966;SDS011;53900;51.468;-2.586;2023-11-21T02:45:32;1.30;;;0.65;;
66966;SDS011;53900;51.468;-2.586;2023-11-21T02:47:57;1.98;;;0.60;;
66966;SDS011;53900;51.468;-2.586;2023-11-21T02:50:22;4.03;;;0.70;;
66966;SDS011;53900;51.468;-2.586;2023-11-21T02:52:48;1.10;;;0.68;;
66966;SDS011;53900;51.468;-2.586;2023-11-21T02:55:13;1.88;;;1.05;;
66966;SDS011;53900;51.468;-2.586;2023-11-21T02:57:38;0.90;;;0.80;;
66966;SDS011;53900;51.468;-2.586;2023-11-21T03:00:03;4.20;;;0.75;;
66966;SDS011;53900;51.468;-2.586;2023-11-21T03:02:32;2.42;;;0.82;;
66966;SDS011;53900;51.468;-2.586;2023-11-21T03:04:57;0.63;;;0.60;;
66966;SDS011;53900;51.468;-2.586;2023-11-21T03:07:22;1.70;;;0.75;;
66966;SDS011;53900;51.468;-2.586;2023-11-21T03:09:47;3.53;;;0.68;;
66966;SDS011;53900;51.468;-2.586;2023-11-21T03:12:13;0.80;;;0.75;;
66966;SDS011;53900;51.468;-2.586;2023-11-21T03:14:41;0.75;;;0.70;;
66966;SDS011;53900;51.468;-2.586;2023-11-21T03:17:06;1.40;;;0.95;;
66966;SDS011;53900;51.468;-2.586;2023-11-21T03:19:31;1.55;;;0.88;;
66966;SDS011;53900;51.468;-2.586;2023-11-21T03:21:57;1.23;;;0.90;;
66966;SDS011;53900;51.468;-2.586;2023-11-21T03:24:22;1.58;;;1.10;;
66966;SDS011;53900;51.468;-2.586;2023-11-21T03:26:48;3.45;;;1.48;;
66966;SDS011;53900;51.468;-2.586;2023-11-21T03:29:13;2.25;;;1.48;;
66966;SDS011;53900;51.468;-2.586;2023-11-21T03:31:39;3.63;;;1.40;;
66966;SDS011;53900;51.468;-2.586;2023-11-21T03:34:04;2.70;;;1.70;;
66966;SDS011;53900;51.468;-2.586;2023-11-21T03:36:29;2.50;;;1.65;;
66966;SDS011;53900;51.468;-2.586;2023-11-21T03:38:55;1.80;;;1.63;;
66966;SDS011;53900;51.468;-2.586;2023-11-21T03:41:21;1.80;;;1.65;;
66966;SDS011;53900;51.468;-2.586;2023-11-21T03:43:46;3.42;;;1.92;;
66966;SDS011;53900;51.468;-2.586;2023-11-21T03:46:11;2.25;;;1.85;;
66966;SDS011;53900;51.468;-2.586;2023-11-21T03:48:37;3.00;;;1.90;;
66966;SDS011;53900;51.468;-2.586;2023-11-21T03:51:02;3.42;;;1.98;;
66966;SDS011;53900;51.468;-2.586;2023-11-21T03:53:28;2.67;;;2.00;;
66966;SDS011;53900;51.468;-2.586;2023-11-21T03:55:53;3.13;;;2.00;;
66966;SDS011;53900;51.468;-2.586;2023-11-21T03:58:19;2.15;;;1.95;;
66966;SDS011;53900;51.468;-2.586;2023-11-21T04:00:44;3.58;;;2.22;;
66966;SDS011;53900;51.468;-2.586;2023-11-21T04:03:09;3.88;;;2.00;;
66966;SDS011;53900;51.468;-2.586;2023-11-21T04:05:34;2.20;;;2.00;;
66966;SDS011;53900;51.468;-2.586;2023-11-21T04:08:00;3.47;;;2.25;;
66966;SDS011;53900;51.468;-2.586;2023-11-21T04:10:25;3.38;;;1.92;;
66966;SDS011;53900;51.468;-2.586;2023-11-21T04:12:50;2.08;;;1.83;;
66966;SDS011;53900;51.468;-2.586;2023-11-21T04:15:15;4.90;;;2.25;;
66966;SDS011;53900;51.468;-2.586;2023-11-21T04:17:41;2.55;;;1.92;;
66966;SDS011;53900;51.468;-2.586;2023-11-21T04:20:07;2.95;;;1.70;;
66966;SDS011;53900;51.468;-2.586;2023-11-21T04:22:41;1.75;;;1.65;;
66966;SDS011;53900;51.468;-2.586;2023-11-21T04:25:13;4.93;;;1.58;;
66966;SDS011;53900;51.468;-2.586;2023-11-21T04:27:39;1.92;;;1.60;;
66966;SDS011;53900;51.468;-2.586;2023-11-21T04:30:05;1.63;;;1.40;;
66966;SDS011;53900;51.468;-2.586;2023-11-21T04:32:30;1.52;;;1.10;;
66966;SDS011;53900;51.468;-2.586;2023-11-21T04:34:55;1.48;;;1.27;;
66966;SDS011;53900;51.468;-2.586;2023-11-21T04:37:20;1.15;;;0.90;;
66966;SDS011;53900;51.468;-2.586;2023-11-21T04:39:46;2.72;;;1.00;;
66966;SDS011;53900;51.468;-2.586;2023-11-21T04:42:11;1.30;;;0.95;;
66966;SDS011;53900;51.468;-2.586;2023-11-21T04:44:37;0.90;;;0.80;;
66966;SDS011;53900;51.468;-2.586;2023-11-21T04:47:03;1.02;;;0.65;;
66966;SDS011;53900;51.468;-2.586;2023-11-21T04:49:29;0.90;;;0.90;;
66966;SDS011;53900;51.468;-2.586;2023-11-21T04:51:54;0.70;;;0.70;;
66966;SDS011;53900;51.468;-2.586;2023-11-21T04:54:20;1.70;;;0.60;;
66966;SDS011;53900;51.468;-2.586;2023-11-21T04:56:45;0.60;;;0.60;;
66966;SDS011;53900;51.468;-2.586;2023-11-21T04:59:10;0.75;;;0.65;;
66966;SDS011;53900;51.468;-2.586;2023-11-21T05:01:35;1.10;;;0.60;;
66966;SDS011;53900;51.468;-2.586;2023-11-21T05:04:01;0.70;;;0.70;;
66966;SDS011;53900;51.468;-2.586;2023-11-21T05:06:26;2.63;;;0.65;;
66966;SDS011;53900;51.468;-2.586;2023-11-21T05:08:52;0.70;;;0.70;;
66966;SDS011;53900;51.468;-2.586;2023-11-21T05:11:26;0.90;;;0.60;;
66966;SDS011;53900;51.468;-2.586;2023-11-21T05:13:51;0.52;;;0.52;;
66966;SDS011;53900;51.468;-2.586;2023-11-21T05:16:17;0.82;;;0.60;;
66966;SDS011;53900;51.468;-2.586;2023-11-21T05:18:43;1.15;;;0.50;;
66966;SDS011;53900;51.468;-2.586;2023-11-21T05:21:09;0.55;;;0.45;;
66966;SDS011;53900;51.468;-2.586;2023-11-21T05:23:34;0.43;;;0.40;;
66966;SDS011;53900;51.468;-2.586;2023-11-21T05:25:59;1.30;;;0.50;;
66966;SDS011;53900;51.468;-2.586;2023-11-21T05:28:25;1.05;;;0.32;;
66966;SDS011;53900;51.468;-2.586;2023-11-21T05:30:50;1.70;;;0.50;;
66966;SDS011;53900;51.468;-2.586;2023-11-21T05:33:15;0.55;;;0.40;;
66966;SDS011;53900;51.468;-2.586;2023-11-21T05:35:40;0.40;;;0.40;;
66966;SDS011;53900;51.468;-2.586;2023-11-21T05:38:06;0.50;;;0.50;;
66966;SDS011;53900;51.468;-2.586;2023-11-21T05:40:31;0.55;;;0.50;;
66966;SDS011;53900;51.468;-2.586;2023-11-21T05:42:56;0.60;;;0.45;;
66966;SDS011;53900;51.468;-2.586;2023-11-21T05:45:21;0.40;;;0.38;;
66966;SDS011;53900;51.468;-2.586;2023-11-21T05:47:46;1.08;;;0.40;;
66966;SDS011;53900;51.468;-2.586;2023-11-21T05:50:12;0.30;;;0.30;;
66966;SDS011;53900;51.468;-2.586;2023-11-21T05:52:39;0.50;;;0.50;;
66966;SDS011;53900;51.468;-2.586;2023-11-21T05:55:05;3.83;;;0.45;;
66966;SDS011;53900;51.468;-2.586;2023-11-21T05:57:33;1.83;;;0.40;;
66966;SDS011;53900;51.468;-2.586;2023-11-21T06:00:01;1.10;;;0.43;;
66966;SDS011;53900;51.468;-2.586;2023-11-21T06:02:34;1.60;;;0.57;;
66966;SDS011;53900;51.468;-2.586;2023-11-21T06:05:00;1.00;;;0.40;;
66966;SDS011;53900;51.468;-2.586;2023-11-21T06:07:25;2.33;;;0.70;;
66966;SDS011;53900;51.468;-2.586;2023-11-21T06:09:50;0.88;;;0.40;;
66966;SDS011;53900;51.468;-2.586;2023-11-21T06:12:15;2.22;;;0.90;;
66966;SDS011;53900;51.468;-2.586;2023-11-21T06:14:41;1.20;;;0.47;;
66966;SDS011;53900;51.468;-2.586;2023-11-21T06:17:06;1.17;;;0.50;;
66966;SDS011;53900;51.468;-2.586;2023-11-21T06:19:31;2.05;;;0.43;;
66966;SDS011;53900;51.468;-2.586;2023-11-21T06:21:56;0.40;;;0.40;;
66966;SDS011;53900;51.468;-2.586;2023-11-21T06:24:21;1.15;;;0.50;;
66966;SDS011;53900;51.468;-2.586;2023-11-21T06:26:47;1.55;;;0.50;;
66966;SDS011;53900;51.468;-2.586;2023-11-21T06:29:13;2.03;;;0.50;;
66966;SDS011;53900;51.468;-2.586;2023-11-21T06:31:38;1.50;;;0.40;;
66966;SDS011;53900;51.468;-2.586;2023-11-21T06:34:05;1.25;;;0.45;;
66966;SDS011;53900;51.468;-2.586;2023-11-21T06:36:31;2.08;;;0.80;;
66966;SDS011;53900;51.468;-2.586;2023-11-21T06:38:56;0.35;;;0.35;;
66966;SDS011;53900;51.468;-2.586;2023-11-21T06:41:21;0.45;;;0.45;;
66966;SDS011;53900;51.468;-2.586;2023-11-21T06:43:47;3.63;;;0.60;;
66966;SDS011;53900;51.468;-2.586;2023-11-21T06:46:13;2.33;;;0.73;;
66966;SDS011;53900;51.468;-2.586;2023-11-21T06:48:43;1.02;;;0.40;;
66966;SDS011;53900;51.468;-2.586;2023-11-21T06:51:09;2.03;;;0.50;;
66966;SDS011;53900;51.468;-2.586;2023-11-21T06:53:35;0.63;;;0.50;;
66966;SDS011;53900;51.468;-2.586;2023-11-21T06:56:00;0.73;;;0.50;;
66966;SDS011;53900;51.468;-2.586;2023-11-21T06:58:25;2.10;;;0.40;;
66966;SDS011;53900;51.468;-2.586;2023-11-21T07:00:51;1.55;;;0.40;;
66966;SDS011;53900;51.468;-2.586;2023-11-21T07:03:17;0.65;;;0.43;;
66966;SDS011;53900;51.468;-2.586;2023-11-21T07:05:44;1.75;;;0.30;;
66966;SDS011;53900;51.468;-2.586;2023-11-21T07:08:09;2.15;;;0.80;;
66966;SDS011;53900;51.468;-2.586;2023-11-21T07:10:35;0.68;;;0.45;;
66966;SDS011;53900;51.468;-2.586;2023-11-21T07:13:01;0.57;;;0.40;;
66966;SDS011;53900;51.468;-2.586;2023-11-21T07:15:27;0.38;;;0.38;;
66966;SDS011;53900;51.468;-2.586;2023-11-21T07:17:52;0.82;;;0.40;;
66966;SDS011;53900;51.468;-2.586;2023-11-21T07:20:19;1.23;;;0.30;;
66966;SDS011;53900;51.468;-2.586;2023-11-21T07:22:44;0.70;;;0.50;;
66966;SDS011;53900;51.468;-2.586;2023-11-21T07:25:10;0.38;;;0.30;;
66966;SDS011;53900;51.468;-2.586;2023-11-21T07:27:35;0.55;;;0.40;;
66966;SDS011;53900;51.468;-2.586;2023-11-21T07:30:01;0.30;;;0.30;;
66966;SDS011;53900;51.468;-2.586;2023-11-21T07:32:29;1.55;;;0.70;;
66966;SDS011;53900;51.468;-2.586;2023-11-21T07:34:54;0.50;;;0.22;;
66966;SDS011;53900;51.468;-2.586;2023-11-21T07:37:22;0.47;;;0.20;;
66966;SDS011;53900;51.468;-2.586;2023-11-21T07:39:47;1.25;;;0.50;;
66966;SDS011;53900;51.468;-2.586;2023-11-21T07:42:12;4.13;;;0.38;;
66966;SDS011;53900;51.468;-2.586;2023-11-21T07:44:37;1.60;;;0.32;;
66966;SDS011;53900;51.468;-2.586;2023-11-21T07:47:03;4.47;;;0.60;;
66966;SDS011;53900;51.468;-2.586;2023-11-21T07:49:29;8.02;;;0.30;;
66966;SDS011;53900;51.468;-2.586;2023-11-21T07:51:54;3.55;;;0.30;;
66966;SDS011;53900;51.468;-2.586;2023-11-21T07:54:20;1.08;;;0.38;;
66966;SDS011;53900;51.468;-2.586;2023-11-21T07:56:46;1.30;;;0.20;;
66966;SDS011;53900;51.468;-2.586;2023-11-21T07:59:11;0.80;;;0.40;;
66966;SDS011;53900;51.468;-2.586;2023-11-21T08:01:37;2.65;;;0.50;;
66966;SDS011;53900;51.468;-2.586;2023-11-21T08:04:02;0.63;;;0.30;;
66966;SDS011;53900;51.468;-2.586;2023-11-21T08:06:29;0.77;;;0.43;;
66966;SDS011;53900;51.468;-2.586;2023-11-21T08:08:54;0.65;;;0.30;;
66966;SDS011;53900;51.468;-2.586;2023-11-21T08:11:19;0.65;;;0.30;;
66966;SDS011;53900;51.468;-2.586;2023-11-21T08:13:46;0.95;;;0.40;;
66966;SDS011;53900;51.468;-2.586;2023-11-21T08:16:11;0.82;;;0.25;;
66966;SDS011;53900;51.468;-2.586;2023-11-21T08:18:37;0.38;;;0.20;;
66966;SDS011;53900;51.468;-2.586;2023-11-21T08:21:02;4.13;;;0.50;;
66966;SDS011;53900;51.468;-2.586;2023-11-21T08:23:28;2.38;;;0.38;;
66966;SDS011;53900;51.468;-2.586;2023-11-21T08:25:53;0.30;;;0.30;;
66966;SDS011;53900;51.468;-2.586;2023-11-21T08:28:19;1.17;;;0.40;;
66966;SDS011;53900;51.468;-2.586;2023-11-21T08:30:44;2.85;;;0.40;;
66966;SDS011;53900;51.468;-2.586;2023-11-21T08:33:10;1.15;;;0.50;;
66966;SDS011;53900;51.468;-2.586;2023-11-21T08:35:36;0.57;;;0.35;;
66966;SDS011;53900;51.468;-2.586;2023-11-21T08:38:02;1.95;;;0.50;;
66966;SDS011;53900;51.468;-2.586;2023-11-21T08:40:27;0.55;;;0.28;;
66966;SDS011;53900;51.468;-2.586;2023-11-21T08:42:52;3.20;;;0.30;;
66966;SDS011;53900;51.468;-2.586;2023-11-21T08:45:18;3.47;;;0.40;;
66966;SDS011;53900;51.468;-2.586;2023-11-21T08:47:43;1.90;;;0.47;;
66966;SDS011;53900;51.468;-2.586;2023-11-21T08:50:11;3.25;;;0.60;;
66966;SDS011;53900;51.468;-2.586;2023-11-21T08:52:37;0.50;;;0.35;;
66966;SDS011;53900;51.468;-2.586;2023-11-21T08:55:03;1.70;;;0.60;;
66966;SDS011;53900;51.468;-2.586;2023-11-21T08:57:33;1.30;;;0.60;;
66966;SDS011;53900;51.468;-2.586;2023-11-21T08:59:58;1.27;;;0.40;;
66966;SDS011;53900;51.468;-2.586;2023-11-21T09:02:25;2.33;;;0.50;;
66966;SDS011;53900;51.468;-2.586;2023-11-21T09:04:51;1.38;;;0.30;;
66966;SDS011;53900;51.468;-2.586;2023-11-21T09:07:17;0.35;;;0.22;;
66966;SDS011;53900;51.468;-2.586;2023-11-21T09:09:43;2.28;;;0.38;;
66966;SDS011;53900;51.468;-2.586;2023-11-21T09:12:09;0.50;;;0.40;;
66966;SDS011;53900;51.468;-2.586;2023-11-21T09:14:37;1.95;;;0.50;;
66966;SDS011;53900;51.468;-2.586;2023-11-21T09:17:02;1.45;;;0.32;;
66966;SDS011;53900;51.468;-2.586;2023-11-21T09:19:27;1.92;;;0.30;;
66966;SDS011;53900;51.468;-2.586;2023-11-21T09:21:53;1.83;;;0.70;;
66966;SDS011;53900;51.468;-2.586;2023-11-21T09:24:19;1.05;;;0.50;;
66966;SDS011;53900;51.468;-2.586;2023-11-21T09:26:44;1.50;;;0.40;;
66966;SDS011;53900;51.468;-2.586;2023-11-21T09:29:10;0.20;;;0.20;;
66966;SDS011;53900;51.468;-2.586;2023-11-21T09:31:35;0.30;;;0.30;;
66966;SDS011;53900;51.468;-2.586;2023-11-21T09:34:00;0.40;;;0.40;;
66966;SDS011;53900;51.468;-2.586;2023-11-21T09:36:27;0.45;;;0.45;;
66966;SDS011;53900;51.468;-2.586;2023-11-21T09:38:54;0.90;;;0.43;;
66966;SDS011;53900;51.468;-2.586;2023-11-21T09:41:25;1.35;;;0.38;;
66966;SDS011;53900;51.468;-2.586;2023-11-21T09:43:54;1.67;;;0.40;;
66966;SDS011;53900;51.468;-2.586;2023-11-21T09:46:20;0.40;;;0.38;;
66966;SDS011;53900;51.468;-2.586;2023-11-21T09:48:50;1.10;;;0.40;;
66966;SDS011;53900;51.468;-2.586;2023-11-21T09:51:16;0.65;;;0.35;;
66966;SDS011;53900;51.468;-2.586;2023-11-21T09:53:44;0.30;;;0.30;;
66966;SDS011;53900;51.468;-2.586;2023-11-21T09:56:11;0.73;;;0.50;;
66966;SDS011;53900;51.468;-2.586;2023-11-21T09:58:36;2.08;;;0.60;;
66966;SDS011;53900;51.468;-2.586;2023-11-21T10:01:02;0.40;;;0.40;;
66966;SDS011;53900;51.468;-2.586;2023-11-21T10:03:28;1.70;;;0.40;;
66966;SDS011;53900;51.468;-2.586;2023-11-21T10:05:54;1.65;;;0.70;;
66966;SDS011;53900;51.468;-2.586;2023-11-21T10:08:21;1.52;;;0.43;;
66966;SDS011;53900;51.468;-2.586;2023-11-21T10:10:49;4.03;;;0.40;;
66966;SDS011;53900;51.468;-2.586;2023-11-21T10:13:14;1.23;;;0.43;;
66966;SDS011;53900;51.468;-2.586;2023-11-21T10:15:43;4.28;;;1.00;;
66966;SDS011;53900;51.468;-2.586;2023-11-21T10:18:13;1.75;;;0.75;;
66966;SDS011;53900;51.468;-2.586;2023-11-21T10:20:40;4.18;;;0.40;;
66966;SDS011;53900;51.468;-2.586;2023-11-21T10:23:05;1.20;;;0.60;;
66966;SDS011;53900;51.468;-2.586;2023-11-21T10:25:32;1.33;;;0.52;;
66966;SDS011;53900;51.468;-2.586;2023-11-21T10:27:58;2.65;;;0.98;;
66966;SDS011;53900;51.468;-2.586;2023-11-21T10:30:36;4.57;;;0.70;;
66966;SDS011;53900;51.468;-2.586;2023-11-21T10:33:02;1.60;;;0.60;;
66966;SDS011;53900;51.468;-2.586;2023-11-21T10:35:46;2.63;;;0.68;;
66966;SDS011;53900;51.468;-2.586;2023-11-21T10:38:13;2.88;;;0.50;;
66966;SDS011;53900;51.468;-2.586;2023-11-21T10:40:39;3.17;;;0.60;;
66966;SDS011;53900;51.468;-2.586;2023-11-21T10:43:08;2.25;;;0.68;;
66966;SDS011;53900;51.468;-2.586;2023-11-21T10:45:34;2.58;;;0.65;;
66966;SDS011;53900;51.468;-2.586;2023-11-21T10:47:59;1.10;;;0.60;;
66966;SDS011;53900;51.468;-2.586;2023-11-21T10:50:25;2.70;;;1.20;;
66966;SDS011;53900;51.468;-2.586;2023-11-21T10:52:50;2.80;;;0.80;;
66966;SDS011;53900;51.468;-2.586;2023-11-21T10:55:19;3.45;;;0.85;;
66966;SDS011;53900;51.468;-2.586;2023-11-21T10:57:49;2.08;;;0.90;;
66966;SDS011;53900;51.468;-2.586;2023-11-21T11:00:16;1.20;;;0.70;;
66966;SDS011;53900;51.468;-2.586;2023-11-21T11:02:44;3.08;;;0.90;;
66966;SDS011;53900;51.468;-2.586;2023-11-21T11:05:09;2.65;;;0.70;;
66966;SDS011;53900;51.468;-2.586;2023-11-21T11:07:36;5.00;;;0.77;;
66966;SDS011;53900;51.468;-2.586;2023-11-21T11:10:03;3.28;;;0.60;;
66966;SDS011;53900;51.468;-2.586;2023-11-21T11:12:29;2.63;;;0.70;;
66966;SDS011;53900;51.468;-2.586;2023-11-21T11:14:54;2.63;;;0.88;;
66966;SDS011;53900;51.468;-2.586;2023-11-21T11:17:20;1.42;;;0.60;;
66966;SDS011;53900;51.468;-2.586;2023-11-21T11:19:46;3.10;;;0.63;;
66966;SDS011;53900;51.468;-2.586;2023-11-21T11:32:55;4.25;;;1.00;;
66966;SDS011;53900;51.468;-2.586;2023-11-21T11:37:48;3.75;;;0.70;;
66966;SDS011;53900;51.468;-2.586;2023-11-21T11:40:14;2.92;;;0.90;;
66966;SDS011;53900;51.468;-2.586;2023-11-21T11:42:44;3.42;;;0.70;;
66966;SDS011;53900;51.468;-2.586;2023-11-21T11:45:19;5.82;;;0.90;;
66966;SDS011;53900;51.468;-2.586;2023-11-21T11:47:44;4.97;;;1.30;;
66966;SDS011;53900;51.468;-2.586;2023-11-21T11:50:12;2.28;;;1.00;;
66966;SDS011;53900;51.468;-2.586;2023-11-21T11:52:39;3.33;;;0.90;;
66966;SDS011;53900;51.468;-2.586;2023-11-21T11:55:15;4.40;;;0.85;;
66966;SDS011;53900;51.468;-2.586;2023-11-21T11:57:43;5.80;;;0.90;;
66966;SDS011;53900;51.468;-2.586;2023-11-21T12:00:15;1.80;;;0.80;;
66966;SDS011;53900;51.468;-2.586;2023-11-21T12:02:59;4.68;;;0.90;;
66966;SDS011;53900;51.468;-2.586;2023-11-21T12:05:27;4.80;;;0.88;;
66966;SDS011;53900;51.468;-2.586;2023-11-21T12:07:53;4.70;;;0.70;;
66966;SDS011;53900;51.468;-2.586;2023-11-21T12:10:22;1.35;;;0.82;;
66966;SDS011;53900;51.468;-2.586;2023-11-21T12:12:50;3.15;;;0.82;;
66966;SDS011;53900;51.468;-2.586;2023-11-21T12:15:15;6.28;;;1.40;;
66966;SDS011;53900;51.468;-2.586;2023-11-21T12:17:41;3.08;;;0.90;;
66966;SDS011;53900;51.468;-2.586;2023-11-21T12:20:08;2.22;;;0.80;;
66966;SDS011;53900;51.468;-2.586;2023-11-21T12:22:41;5.35;;;1.02;;
66966;SDS011;53900;51.468;-2.586;2023-11-21T12:25:06;3.45;;;1.23;;
66966;SDS011;53900;51.468;-2.586;2023-11-21T12:27:32;3.50;;;1.15;;
66966;SDS011;53900;51.468;-2.586;2023-11-21T12:29:57;6.65;;;1.10;;
66966;SDS011;53900;51.468;-2.586;2023-11-21T12:32:22;2.35;;;1.02;;
66966;SDS011;53900;51.468;-2.586;2023-11-21T12:34:47;6.68;;;1.17;;
66966;SDS011;53900;51.468;-2.586;2023-11-21T12:37:12;4.72;;;1.30;;
66966;SDS011;53900;51.468;-2.586;2023-11-21T12:39:38;3.90;;;1.05;;
66966;SDS011;53900;51.468;-2.586;2023-11-21T12:42:03;3.38;;;1.10;;
66966;SDS011;53900;51.468;-2.586;2023-11-21T12:44:28;3.05;;;1.10;;
66966;SDS011;53900;51.468;-2.586;2023-11-21T12:46:54;2.20;;;0.88;;
66966;SDS011;53900;51.468;-2.586;2023-11-21T12:49:20;2.15;;;1.08;;
66966;SDS011;53900;51.468;-2.586;2023-11-21T12:51:47;2.65;;;1.17;;
66966;SDS011;53900;51.468;-2.586;2023-11-21T12:54:12;3.08;;;1.10;;
66966;SDS011;53900;51.468;-2.586;2023-11-21T12:56:40;4.57;;;2.78;;
66966;SDS011;53900;51.468;-2.586;2023-11-21T12:59:05;2.03;;;0.80;;
66966;SDS011;53900;51.468;-2.586;2023-11-21T13:01:30;4.60;;;1.10;;
66966;SDS011;53900;51.468;-2.586;2023-11-21T13:03:57;3.40;;;1.20;;
66966;SDS011;53900;51.468;-2.586;2023-11-21T13:06:23;3.22;;;1.52;;
66966;SDS011;53900;51.468;-2.586;2023-11-21T13:08:50;3.33;;;0.80;;
66966;SDS011;53900;51.468;-2.586;2023-11-21T13:11:16;4.35;;;0.90;;
66966;SDS011;53900;51.468;-2.586;2023-11-21T13:13:42;3.38;;;1.00;;
66966;SDS011;53900;51.468;-2.586;2023-11-21T13:16:08;4.97;;;0.98;;
66966;SDS011;53900;51.468;-2.586;2023-11-21T13:18:34;4.82;;;0.70;;
66966;SDS011;53900;51.468;-2.586;2023-11-21T13:21:01;2.38;;;1.13;;
66966;SDS011;53900;51.468;-2.586;2023-11-21T13:23:27;3.80;;;0.93;;
66966;SDS011;53900;51.468;-2.586;2023-11-21T13:25:54;3.85;;;1.00;;
66966;SDS011;53900;51.468;-2.586;2023-11-21T13:28:20;1.80;;;0.88;;
66966;SDS011;53900;51.468;-2.586;2023-11-21T13:30:46;3.65;;;0.80;;
66966;SDS011;53900;51.468;-2.586;2023-11-21T13:33:12;1.17;;;0.65;;
66966;SDS011;53900;51.468;-2.586;2023-11-21T13:38:12;0.93;;;0.52;;
66966;SDS011;53900;51.468;-2.586;2023-11-21T13:40:37;3.95;;;1.15;;
66966;SDS011;53900;51.468;-2.586;2023-11-21T13:43:11;3.45;;;1.38;;
66966;SDS011;53900;51.468;-2.586;2023-11-21T13:45:37;3.55;;;0.60;;
66966;SDS011;53900;51.468;-2.586;2023-11-21T13:48:04;0.80;;;0.70;;
66966;SDS011;53900;51.468;-2.586;2023-11-21T13:50:32;2.72;;;0.80;;
66966;SDS011;53900;51.468;-2.586;2023-11-21T13:52:59;4.72;;;0.82;;
66966;SDS011;53900;51.468;-2.586;2023-11-21T13:55:29;3.15;;;1.05;;
66966;SDS011;53900;51.468;-2.586;2023-11-21T13:57:54;1.92;;;0.77;;
66966;SDS011;53900;51.468;-2.586;2023-11-21T14:00:19;3.53;;;1.08;;
66966;SDS011;53900;51.468;-2.586;2023-11-21T14:03:03;2.55;;;0.70;;
66966;SDS011;53900;51.468;-2.586;2023-11-21T14:05:33;1.45;;;0.77;;
66966;SDS011;53900;51.468;-2.586;2023-11-21T14:07:59;3.97;;;1.10;;
66966;SDS011;53900;51.468;-2.586;2023-11-21T14:10:30;6.97;;;0.90;;
66966;SDS011;53900;51.468;-2.586;2023-11-21T14:13:05;4.38;;;0.90;;
66966;SDS011;53900;51.468;-2.586;2023-11-21T14:15:30;3.10;;;0.73;;
66966;SDS011;53900;51.468;-2.586;2023-11-21T14:17:57;2.25;;;0.85;;
66966;SDS011;53900;51.468;-2.586;2023-11-21T14:20:24;2.45;;;0.75;;
66966;SDS011;53900;51.468;-2.586;2023-11-21T14:22:50;2.63;;;0.90;;
66966;SDS011;53900;51.468;-2.586;2023-11-21T14:25:15;2.67;;;1.00;;
66966;SDS011;53900;51.468;-2.586;2023-11-21T14:27:45;0.93;;;0.85;;
66966;SDS011;53900;51.468;-2.586;2023-11-21T14:30:11;2.28;;;0.98;;
66966;SDS011;53900;51.468;-2.586;2023-11-21T14:32:38;1.30;;;0.80;;
66966;SDS011;53900;51.468;-2.586;2023-11-21T14:35:04;0.70;;;0.70;;
66966;SDS011;53900;51.468;-2.586;2023-11-21T14:37:30;2.85;;;0.90;;
66966;SDS011;53900;51.468;-2.586;2023-11-21T14:39:55;4.95;;;0.80;;
66966;SDS011;53900;51.468;-2.586;2023-11-21T14:42:22;4.75;;;0.70;;